Todd, Pennsylvania
Current Conditions -  °F | °C
As of 11:53 PM on Saturday 25 Oct 2014 (Local Time) from KAOO Reporting Station
Few Clouds Few Clouds  
Wind Chill: 60°   Ceiling: Unl
Heat Index: 60°   Visibility: 10mi
Dew Point: 46°   Wind: 25mph
Humidity: 60%   Direction: 290°WNW
Pressure: 29.7"   Gusts: 31mph
Location:  40.26°N, 78.08°W
Report Text: KAOO 260353Z AUTO 29022G27KT 10SM FEW038 16/08 A2970 RMK AO2 PK WND 32038/0332 SLP051 T01560078
Loading
Personal Weather Stations






























Interactive Weather Map
Tropical Storm Tracking
New forecast layout! Learn more

10-Day Weather Forecast

Advertisements
Track Severe Weather on mobile